sensor_id;sensor_type;location;lat;lon;timestamp;P1;durP1;ratioP1;P2;durP2;ratioP2
50651;SDS011;61429;52.086;5.240;2022-09-09T00:00:11;2.4;;;2.21;;
50651;SDS011;61429;52.086;5.240;2022-09-09T00:01:50;3.1;;;2.0;;
50651;SDS011;61429;52.086;5.240;2022-09-09T00:03:36;2.5;;;2.21;;
50651;SDS011;61429;52.086;5.240;2022-09-09T00:05:21;3.8;;;2.31;;
50651;SDS011;61429;52.086;5.240;2022-09-09T00:07:07;2.7;;;2.31;;
50651;SDS011;61429;52.086;5.240;2022-09-09T00:10:39;2.9;;;2.21;;
50651;SDS011;61429;52.086;5.240;2022-09-09T00:12:18;4.3;;;2.5;;
50651;SDS011;61429;52.086;5.240;2022-09-09T00:14:13;4.2;;;2.5;;
50651;SDS011;61429;52.086;5.240;2022-09-09T00:15:59;4.7;;;2.4;;
50651;SDS011;61429;52.086;5.240;2022-09-09T00:17:42;2.7;;;2.31;;
50651;SDS011;61429;52.086;5.240;2022-09-09T00:21:15;3.1;;;2.6;;
50651;SDS011;61429;52.086;5.240;2022-09-09T00:22:56;3.7;;;2.6;;
50651;SDS011;61429;52.086;5.240;2022-09-09T00:24:41;3.3;;;2.7;;
50651;SDS011;61429;52.086;5.240;2022-09-09T00:26:21;3.6;;;2.6;;
50651;SDS011;61429;52.086;5.240;2022-09-09T00:28:10;3.5;;;2.5;;
50651;SDS011;61429;52.086;5.240;2022-09-09T00:31:37;3.2;;;2.5;;
50651;SDS011;61429;52.086;5.240;2022-09-09T00:33:15;3.2;;;2.5;;
50651;SDS011;61429;52.086;5.240;2022-09-09T00:34:55;4.0;;;2.5;;
50651;SDS011;61429;52.086;5.240;2022-09-09T00:36:38;3.9;;;2.7;;
50651;SDS011;61429;52.086;5.240;2022-09-09T00:39:57;3.3;;;2.7;;
50651;SDS011;61429;52.086;5.240;2022-09-09T00:41:41;3.2;;;2.6;;
50651;SDS011;61429;52.086;5.240;2022-09-09T00:43:38;3.7;;;2.8;;
50651;SDS011;61429;52.086;5.240;2022-09-09T00:45:32;3.0;;;2.7;;
50651;SDS011;61429;52.086;5.240;2022-09-09T00:47:28;5.11;;;2.6;;
50651;SDS011;61429;52.086;5.240;2022-09-09T00:49:33;4.61;;;3.2;;
50651;SDS011;61429;52.086;5.240;2022-09-09T00:51:24;4.1;;;3.0;;
50651;SDS011;61429;52.086;5.240;2022-09-09T00:53:15;3.4;;;2.8;;
50651;SDS011;61429;52.086;5.240;2022-09-09T00:56:56;3.5;;;2.8;;
50651;SDS011;61429;52.086;5.240;2022-09-09T00:58:42;4.91;;;3.0;;
50651;SDS011;61429;52.086;5.240;2022-09-09T01:00:27;4.1;;;2.9;;
50651;SDS011;61429;52.086;5.240;2022-09-09T01:02:12;3.8;;;3.4;;
50651;SDS011;61429;52.086;5.240;2022-09-09T01:03:55;3.9;;;2.8;;
50651;SDS011;61429;52.086;5.240;2022-09-09T01:07:16;3.9;;;3.3;;
50651;SDS011;61429;52.086;5.240;2022-09-09T01:09:04;4.0;;;3.1;;
50651;SDS011;61429;52.086;5.240;2022-09-09T01:10:57;3.3;;;3.0;;
50651;SDS011;61429;52.086;5.240;2022-09-09T01:12:38;4.8;;;3.5;;
50651;SDS011;61429;52.086;5.240;2022-09-09T01:14:22;4.3;;;2.8;;
50651;SDS011;61429;52.086;5.240;2022-09-09T01:16:09;3.3;;;2.9;;
50651;SDS011;61429;52.086;5.240;2022-09-09T01:19:37;3.2;;;2.8;;
50651;SDS011;61429;52.086;5.240;2022-09-09T01:21:26;5.0;;;3.4;;
50651;SDS011;61429;52.086;5.240;2022-09-09T01:23:18;5.11;;;3.1;;
50651;SDS011;61429;52.086;5.240;2022-09-09T01:25:15;4.1;;;3.1;;
50651;SDS011;61429;52.086;5.240;2022-09-09T01:27:51;5.4;;;3.1;;
50651;SDS011;61429;52.086;5.240;2022-09-09T01:29:31;4.2;;;3.1;;
50651;SDS011;61429;52.086;5.240;2022-09-09T01:31:09;5.4;;;3.6;;
50651;SDS011;61429;52.086;5.240;2022-09-09T01:32:51;3.8;;;3.5;;
50651;SDS011;61429;52.086;5.240;2022-09-09T01:36:16;4.0;;;3.2;;
50651;SDS011;61429;52.086;5.240;2022-09-09T01:38:00;5.11;;;3.8;;
50651;SDS011;61429;52.086;5.240;2022-09-09T01:39:37;5.5;;;3.8;;
50651;SDS011;61429;52.086;5.240;2022-09-09T01:41:18;4.61;;;3.8;;
50651;SDS011;61429;52.086;5.240;2022-09-09T01:44:32;3.9;;;3.5;;
50651;SDS011;61429;52.086;5.240;2022-09-09T01:46:10;3.8;;;3.4;;
50651;SDS011;61429;52.086;5.240;2022-09-09T01:47:48;4.5;;;3.6;;
50651;SDS011;61429;52.086;5.240;2022-09-09T01:51:03;4.0;;;3.6;;
50651;SDS011;61429;52.086;5.240;2022-09-09T01:52:39;4.8;;;3.8;;
50651;SDS011;61429;52.086;5.240;2022-09-09T01:54:16;5.11;;;3.7;;
50651;SDS011;61429;52.086;5.240;2022-09-09T01:55:56;4.2;;;3.5;;
50651;SDS011;61429;52.086;5.240;2022-09-09T01:59:34;4.1;;;3.4;;
50651;SDS011;61429;52.086;5.240;2022-09-09T02:01:28;4.5;;;3.3;;
50651;SDS011;61429;52.086;5.240;2022-09-09T02:03:18;3.9;;;3.6;;
50651;SDS011;61429;52.086;5.240;2022-09-09T02:06:53;3.8;;;3.4;;
50651;SDS011;61429;52.086;5.240;2022-09-09T02:08:33;5.2;;;3.4;;
50651;SDS011;61429;52.086;5.240;2022-09-09T02:12:06;4.61;;;3.6;;
50651;SDS011;61429;52.086;5.240;2022-09-09T02:13:48;4.2;;;3.6;;
50651;SDS011;61429;52.086;5.240;2022-09-09T02:15:30;5.11;;;3.5;;
50651;SDS011;61429;52.086;5.240;2022-09-09T02:17:15;6.3;;;3.8;;
50651;SDS011;61429;52.086;5.240;2022-09-09T02:19:00;5.6;;;4.3;;
50651;SDS011;61429;52.086;5.240;2022-09-09T02:22:21;5.11;;;3.7;;
50651;SDS011;61429;52.086;5.240;2022-09-09T02:24:00;4.2;;;3.6;;
50651;SDS011;61429;52.086;5.240;2022-09-09T02:25:41;4.91;;;3.7;;
50651;SDS011;61429;52.086;5.240;2022-09-09T02:27:19;4.3;;;3.6;;
50651;SDS011;61429;52.086;5.240;2022-09-09T02:30:38;4.3;;;3.4;;
50651;SDS011;61429;52.086;5.240;2022-09-09T02:32:19;3.8;;;3.3;;
50651;SDS011;61429;52.086;5.240;2022-09-09T02:33:59;3.5;;;3.2;;
50651;SDS011;61429;52.086;5.240;2022-09-09T02:35:38;5.3;;;3.8;;
50651;SDS011;61429;52.086;5.240;2022-09-09T02:38:58;4.61;;;3.4;;
50651;SDS011;61429;52.086;5.240;2022-09-09T02:40:35;5.4;;;4.0;;
50651;SDS011;61429;52.086;5.240;2022-09-09T02:42:11;4.8;;;4.0;;
50651;SDS011;61429;52.086;5.240;2022-09-09T02:45:25;4.1;;;3.7;;
50651;SDS011;61429;52.086;5.240;2022-09-09T02:47:13;5.9;;;3.9;;
50651;SDS011;61429;52.086;5.240;2022-09-09T02:49:02;5.5;;;3.8;;
50651;SDS011;61429;52.086;5.240;2022-09-09T02:50:46;5.3;;;3.7;;
50651;SDS011;61429;52.086;5.240;2022-09-09T02:52:32;4.0;;;3.6;;
50651;SDS011;61429;52.086;5.240;2022-09-09T02:56:04;4.41;;;3.7;;
50651;SDS011;61429;52.086;5.240;2022-09-09T02:57:47;4.1;;;3.7;;
50651;SDS011;61429;52.086;5.240;2022-09-09T02:59:25;5.8;;;4.0;;
50651;SDS011;61429;52.086;5.240;2022-09-09T03:01:02;4.8;;;3.9;;
50651;SDS011;61429;52.086;5.240;2022-09-09T03:04:15;4.3;;;3.9;;
50651;SDS011;61429;52.086;5.240;2022-09-09T03:05:52;5.2;;;4.1;;
50651;SDS011;61429;52.086;5.240;2022-09-09T03:07:28;4.3;;;3.7;;
50651;SDS011;61429;52.086;5.240;2022-09-09T03:09:04;5.0;;;4.5;;
50651;SDS011;61429;52.086;5.240;2022-09-09T03:12:16;4.5;;;3.4;;
50651;SDS011;61429;52.086;5.240;2022-09-09T03:13:53;4.91;;;4.0;;
50651;SDS011;61429;52.086;5.240;2022-09-09T03:15:31;4.2;;;3.8;;
50651;SDS011;61429;52.086;5.240;2022-09-09T03:18:45;4.2;;;3.8;;
50651;SDS011;61429;52.086;5.240;2022-09-09T03:20:22;6.2;;;4.1;;
50651;SDS011;61429;52.086;5.240;2022-09-09T03:22:00;5.0;;;3.8;;
50651;SDS011;61429;52.086;5.240;2022-09-09T03:25:12;4.3;;;3.8;;
50651;SDS011;61429;52.086;5.240;2022-09-09T03:26:50;5.7;;;3.8;;
50651;SDS011;61429;52.086;5.240;2022-09-09T03:28:31;5.0;;;4.2;;
50651;SDS011;61429;52.086;5.240;2022-09-09T03:30:07;4.0;;;3.6;;
50651;SDS011;61429;52.086;5.240;2022-09-09T03:33:20;6.1;;;4.41;;
50651;SDS011;61429;52.086;5.240;2022-09-09T03:34:56;5.9;;;4.8;;
50651;SDS011;61429;52.086;5.240;2022-09-09T03:36:33;7.3;;;4.91;;
50651;SDS011;61429;52.086;5.240;2022-09-09T03:39:46;5.7;;;4.41;;
50651;SDS011;61429;52.086;5.240;2022-09-09T03:41:23;6.4;;;5.11;;
50651;SDS011;61429;52.086;5.240;2022-09-09T03:43:01;6.9;;;4.8;;
50651;SDS011;61429;52.086;5.240;2022-09-09T03:44:37;4.91;;;4.41;;
50651;SDS011;61429;52.086;5.240;2022-09-09T03:47:50;5.9;;;4.91;;
50651;SDS011;61429;52.086;5.240;2022-09-09T03:49:28;5.6;;;4.41;;
50651;SDS011;61429;52.086;5.240;2022-09-09T03:51:05;4.2;;;3.6;;
50651;SDS011;61429;52.086;5.240;2022-09-09T03:54:18;5.3;;;4.61;;
50651;SDS011;61429;52.086;5.240;2022-09-09T03:55:55;7.0;;;5.5;;
50651;SDS011;61429;52.086;5.240;2022-09-09T03:57:35;5.3;;;4.7;;
50651;SDS011;61429;52.086;5.240;2022-09-09T04:00:52;5.6;;;5.11;;
50651;SDS011;61429;52.086;5.240;2022-09-09T04:02:30;5.0;;;4.5;;
50651;SDS011;61429;52.086;5.240;2022-09-09T04:04:08;7.3;;;4.8;;
50651;SDS011;61429;52.086;5.240;2022-09-09T04:05:48;5.0;;;4.5;;
50651;SDS011;61429;52.086;5.240;2022-09-09T04:09:03;4.91;;;4.41;;
50651;SDS011;61429;52.086;5.240;2022-09-09T04:10:39;5.8;;;4.61;;
50651;SDS011;61429;52.086;5.240;2022-09-09T04:12:16;6.4;;;4.3;;
50651;SDS011;61429;52.086;5.240;2022-09-09T04:15:29;5.2;;;4.2;;
50651;SDS011;61429;52.086;5.240;2022-09-09T04:17:06;6.1;;;4.91;;
50651;SDS011;61429;52.086;5.240;2022-09-09T04:18:42;5.0;;;4.2;;
50651;SDS011;61429;52.086;5.240;2022-09-09T04:20:19;5.5;;;4.7;;
50651;SDS011;61429;52.086;5.240;2022-09-09T04:23:31;5.5;;;4.41;;
50651;SDS011;61429;52.086;5.240;2022-09-09T04:26:45;5.8;;;4.5;;
50651;SDS011;61429;52.086;5.240;2022-09-09T04:30:01;6.1;;;3.7;;
50651;SDS011;61429;52.086;5.240;2022-09-09T04:31:41;5.4;;;4.0;;
50651;SDS011;61429;52.086;5.240;2022-09-09T04:33:18;4.91;;;4.0;;
50651;SDS011;61429;52.086;5.240;2022-09-09T04:34:54;5.2;;;3.8;;
50651;SDS011;61429;52.086;5.240;2022-09-09T04:38:09;4.41;;;3.7;;
50651;SDS011;61429;52.086;5.240;2022-09-09T04:39:45;5.11;;;3.9;;
50651;SDS011;61429;52.086;5.240;2022-09-09T04:41:21;5.2;;;4.0;;
50651;SDS011;61429;52.086;5.240;2022-09-09T04:44:35;5.3;;;4.2;;
50651;SDS011;61429;52.086;5.240;2022-09-09T04:46:11;4.5;;;4.0;;
50651;SDS011;61429;52.086;5.240;2022-09-09T04:47:47;6.9;;;4.3;;
50651;SDS011;61429;52.086;5.240;2022-09-09T04:51:00;5.11;;;4.3;;
50651;SDS011;61429;52.086;5.240;2022-09-09T04:52:37;4.5;;;4.1;;
50651;SDS011;61429;52.086;5.240;2022-09-09T04:54:14;6.5;;;4.0;;
50651;SDS011;61429;52.086;5.240;2022-09-09T04:55:50;4.41;;;4.0;;
50651;SDS011;61429;52.086;5.240;2022-09-09T04:59:03;5.5;;;4.0;;
50651;SDS011;61429;52.086;5.240;2022-09-09T05:00:38;6.1;;;3.9;;
50651;SDS011;61429;52.086;5.240;2022-09-09T05:02:14;5.9;;;4.3;;
50651;SDS011;61429;52.086;5.240;2022-09-09T05:05:28;5.4;;;4.2;;
50651;SDS011;61429;52.086;5.240;2022-09-09T05:07:04;5.3;;;4.1;;
50651;SDS011;61429;52.086;5.240;2022-09-09T05:08:40;6.2;;;4.0;;
50651;SDS011;61429;52.086;5.240;2022-09-09T05:11:57;5.5;;;4.0;;
50651;SDS011;61429;52.086;5.240;2022-09-09T05:13:34;5.4;;;4.0;;
50651;SDS011;61429;52.086;5.240;2022-09-09T05:15:10;5.9;;;4.1;;
50651;SDS011;61429;52.086;5.240;2022-09-09T05:16:47;6.9;;;3.8;;
50651;SDS011;61429;52.086;5.240;2022-09-09T05:19:59;4.5;;;3.7;;
50651;SDS011;61429;52.086;5.240;2022-09-09T05:21:35;6.9;;;4.1;;
50651;SDS011;61429;52.086;5.240;2022-09-09T05:23:13;4.2;;;3.8;;
50651;SDS011;61429;52.086;5.240;2022-09-09T05:26:26;6.0;;;3.9;;
50651;SDS011;61429;52.086;5.240;2022-09-09T05:28:02;5.11;;;3.4;;
50651;SDS011;61429;52.086;5.240;2022-09-09T05:29:38;5.11;;;4.2;;
50651;SDS011;61429;52.086;5.240;2022-09-09T05:32:55;6.4;;;3.7;;
50651;SDS011;61429;52.086;5.240;2022-09-09T05:34:32;5.6;;;3.8;;
50651;SDS011;61429;52.086;5.240;2022-09-09T05:36:09;6.4;;;4.2;;
50651;SDS011;61429;52.086;5.240;2022-09-09T05:37:47;8.0;;;4.1;;
50651;SDS011;61429;52.086;5.240;2022-09-09T05:41:00;5.6;;;3.6;;
50651;SDS011;61429;52.086;5.240;2022-09-09T05:42:37;6.1;;;3.4;;
50651;SDS011;61429;52.086;5.240;2022-09-09T05:44:13;5.11;;;3.2;;
50651;SDS011;61429;52.086;5.240;2022-09-09T05:47:36;5.2;;;3.4;;
50651;SDS011;61429;52.086;5.240;2022-09-09T05:49:12;8.81;;;4.0;;
50651;SDS011;61429;52.086;5.240;2022-09-09T05:50:52;6.8;;;3.5;;
50651;SDS011;61429;52.086;5.240;2022-09-09T05:52:29;5.7;;;3.5;;
50651;SDS011;61429;52.086;5.240;2022-09-09T05:55:42;4.8;;;3.5;;
50651;SDS011;61429;52.086;5.240;2022-09-09T05:57:19;5.2;;;3.1;;
50651;SDS011;61429;52.086;5.240;2022-09-09T05:58:55;5.3;;;3.7;;
50651;SDS011;61429;52.086;5.240;2022-09-09T06:02:08;7.8;;;3.9;;
50651;SDS011;61429;52.086;5.240;2022-09-09T06:03:45;7.0;;;3.7;;
50651;SDS011;61429;52.086;5.240;2022-09-09T06:05:23;4.5;;;3.3;;
50651;SDS011;61429;52.086;5.240;2022-09-09T06:07:00;6.7;;;3.7;;
50651;SDS011;61429;52.086;5.240;2022-09-09T06:10:16;8.0;;;3.8;;
50651;SDS011;61429;52.086;5.240;2022-09-09T06:11:54;7.9;;;3.4;;
50651;SDS011;61429;52.086;5.240;2022-09-09T06:13:30;5.3;;;3.4;;
50651;SDS011;61429;52.086;5.240;2022-09-09T06:16:46;6.9;;;3.6;;
50651;SDS011;61429;52.086;5.240;2022-09-09T06:18:22;7.4;;;3.9;;
50651;SDS011;61429;52.086;5.240;2022-09-09T06:19:59;5.2;;;3.2;;
50651;SDS011;61429;52.086;5.240;2022-09-09T06:21:36;6.7;;;3.7;;
50651;SDS011;61429;52.086;5.240;2022-09-09T06:24:49;7.8;;;3.5;;
50651;SDS011;61429;52.086;5.240;2022-09-09T06:26:26;9.0;;;3.4;;
50651;SDS011;61429;52.086;5.240;2022-09-09T06:28:03;7.4;;;3.2;;
50651;SDS011;61429;52.086;5.240;2022-09-09T06:31:17;7.7;;;3.4;;
50651;SDS011;61429;52.086;5.240;2022-09-09T06:32:56;6.7;;;3.2;;
50651;SDS011;61429;52.086;5.240;2022-09-09T06:34:32;6.1;;;3.0;;
50651;SDS011;61429;52.086;5.240;2022-09-09T06:37:48;8.9;;;3.4;;
50651;SDS011;61429;52.086;5.240;2022-09-09T06:39:25;10.1;;;3.7;;
50651;SDS011;61429;52.086;5.240;2022-09-09T06:41:02;6.4;;;3.3;;
50651;SDS011;61429;52.086;5.240;2022-09-09T06:42:38;5.5;;;2.8;;
50651;SDS011;61429;52.086;5.240;2022-09-09T06:45:52;7.3;;;3.2;;
50651;SDS011;61429;52.086;5.240;2022-09-09T06:47:30;10.7;;;3.3;;
50651;SDS011;61429;52.086;5.240;2022-09-09T06:49:07;10.8;;;4.0;;
50651;SDS011;61429;52.086;5.240;2022-09-09T06:52:19;8.5;;;3.5;;
50651;SDS011;61429;52.086;5.240;2022-09-09T06:53:56;6.5;;;3.2;;
50651;SDS011;61429;52.086;5.240;2022-09-09T06:55:34;7.9;;;3.3;;
50651;SDS011;61429;52.086;5.240;2022-09-09T06:57:11;8.81;;;3.3;;
50651;SDS011;61429;52.086;5.240;2022-09-09T07:00:26;7.0;;;3.3;;
50651;SDS011;61429;52.086;5.240;2022-09-09T07:02:03;7.4;;;3.6;;
50651;SDS011;61429;52.086;5.240;2022-09-09T07:03:39;10.7;;;4.41;;
50651;SDS011;61429;52.086;5.240;2022-09-09T07:06:52;8.9;;;3.7;;
50651;SDS011;61429;52.086;5.240;2022-09-09T07:08:28;9.0;;;3.1;;
50651;SDS011;61429;52.086;5.240;2022-09-09T07:10:05;9.31;;;3.8;;
50651;SDS011;61429;52.086;5.240;2022-09-09T07:13:23;10.4;;;3.3;;
50651;SDS011;61429;52.086;5.240;2022-09-09T07:15:01;8.2;;;3.1;;
50651;SDS011;61429;52.086;5.240;2022-09-09T07:16:37;7.5;;;3.6;;
50651;SDS011;61429;52.086;5.240;2022-09-09T07:18:13;8.6;;;4.0;;
50651;SDS011;61429;52.086;5.240;2022-09-09T07:21:26;7.9;;;3.2;;
50651;SDS011;61429;52.086;5.240;2022-09-09T07:23:04;6.2;;;3.1;;
50651;SDS011;61429;52.086;5.240;2022-09-09T07:24:41;7.3;;;3.4;;
50651;SDS011;61429;52.086;5.240;2022-09-09T07:27:57;9.71;;;3.8;;
50651;SDS011;61429;52.086;5.240;2022-09-09T07:29:33;6.0;;;2.9;;
50651;SDS011;61429;52.086;5.240;2022-09-09T07:31:12;7.7;;;3.4;;
50651;SDS011;61429;52.086;5.240;2022-09-09T07:32:51;8.9;;;3.5;;
50651;SDS011;61429;52.086;5.240;2022-09-09T07:36:06;7.8;;;3.1;;
50651;SDS011;61429;52.086;5.240;2022-09-09T07:37:43;8.2;;;3.5;;
50651;SDS011;61429;52.086;5.240;2022-09-09T07:39:20;9.31;;;3.7;;
50651;SDS011;61429;52.086;5.240;2022-09-09T07:42:39;6.2;;;3.5;;
50651;SDS011;61429;52.086;5.240;2022-09-09T07:44:17;8.0;;;3.4;;
50651;SDS011;61429;52.086;5.240;2022-09-09T07:45:57;7.1;;;3.5;;
50651;SDS011;61429;52.086;5.240;2022-09-09T07:47:34;5.11;;;2.9;;
50651;SDS011;61429;52.086;5.240;2022-09-09T07:50:47;8.81;;;4.0;;
50651;SDS011;61429;52.086;5.240;2022-09-09T07:52:23;8.2;;;3.6;;
50651;SDS011;61429;52.086;5.240;2022-09-09T07:54:00;9.1;;;4.0;;
50651;SDS011;61429;52.086;5.240;2022-09-09T07:57:16;9.31;;;3.7;;
50651;SDS011;61429;52.086;5.240;2022-09-09T07:58:53;6.9;;;3.2;;
50651;SDS011;61429;52.086;5.240;2022-09-09T08:00:30;8.4;;;3.8;;
50651;SDS011;61429;52.086;5.240;2022-09-09T08:02:06;9.0;;;3.3;;
50651;SDS011;61429;52.086;5.240;2022-09-09T08:05:28;9.21;;;3.9;;
50651;SDS011;61429;52.086;5.240;2022-09-09T08:07:04;7.3;;;3.4;;
50651;SDS011;61429;52.086;5.240;2022-09-09T08:08:41;6.2;;;3.2;;
50651;SDS011;61429;52.086;5.240;2022-09-09T08:10:18;7.6;;;3.8;;
50651;SDS011;61429;52.086;5.240;2022-09-09T08:13:33;8.71;;;4.1;;
50651;SDS011;61429;52.086;5.240;2022-09-09T08:15:10;7.7;;;3.2;;
50651;SDS011;61429;52.086;5.240;2022-09-09T08:16:48;8.2;;;3.5;;
50651;SDS011;61429;52.086;5.240;2022-09-09T08:20:05;8.5;;;3.2;;
50651;SDS011;61429;52.086;5.240;2022-09-09T08:21:42;9.31;;;3.3;;
50651;SDS011;61429;52.086;5.240;2022-09-09T08:23:21;8.5;;;3.5;;
50651;SDS011;61429;52.086;5.240;2022-09-09T08:24:57;7.3;;;3.2;;
50651;SDS011;61429;52.086;5.240;2022-09-09T08:28:12;9.31;;;3.4;;
50651;SDS011;61429;52.086;5.240;2022-09-09T08:29:48;8.31;;;3.3;;
50651;SDS011;61429;52.086;5.240;2022-09-09T08:31:27;6.2;;;2.8;;
50651;SDS011;61429;52.086;5.240;2022-09-09T08:34:41;10.4;;;3.4;;
50651;SDS011;61429;52.086;5.240;2022-09-09T08:36:19;10.0;;;3.5;;
50651;SDS011;61429;52.086;5.240;2022-09-09T08:37:58;7.4;;;2.8;;
50651;SDS011;61429;52.086;5.240;2022-09-09T08:41:16;9.1;;;2.8;;
50651;SDS011;61429;52.086;5.240;2022-09-09T08:43:42;6.4;;;2.8;;
50651;SDS011;61429;52.086;5.240;2022-09-09T08:45:24;6.4;;;2.8;;
50651;SDS011;61429;52.086;5.240;2022-09-09T08:47:09;6.8;;;3.2;;
50651;SDS011;61429;52.086;5.240;2022-09-09T08:49:00;7.5;;;2.9;;
50651;SDS011;61429;52.086;5.240;2022-09-09T08:50:43;9.31;;;3.2;;
50651;SDS011;61429;52.086;5.240;2022-09-09T08:52:21;9.21;;;3.4;;
50651;SDS011;61429;52.086;5.240;2022-09-09T08:55:42;8.5;;;3.3;;
50651;SDS011;61429;52.086;5.240;2022-09-09T08:57:21;34.31;;;5.11;;
50651;SDS011;61429;52.086;5.240;2022-09-09T08:59:03;10.7;;;3.4;;
50651;SDS011;61429;52.086;5.240;2022-09-09T09:00:43;9.21;;;3.6;;
50651;SDS011;61429;52.086;5.240;2022-09-09T09:02:46;8.1;;;2.8;;
50651;SDS011;61429;52.086;5.240;2022-09-09T09:06:31;11.0;;;3.5;;
50651;SDS011;61429;52.086;5.240;2022-09-09T09:08:22;7.1;;;3.0;;
50651;SDS011;61429;52.086;5.240;2022-09-09T09:10:09;26.2;;;4.2;;
50651;SDS011;61429;52.086;5.240;2022-09-09T09:12:01;8.1;;;3.0;;
50651;SDS011;61429;52.086;5.240;2022-09-09T09:13:45;7.5;;;3.2;;
50651;SDS011;61429;52.086;5.240;2022-09-09T09:15:29;9.21;;;3.2;;
50651;SDS011;61429;52.086;5.240;2022-09-09T09:18:54;9.6;;;2.9;;
50651;SDS011;61429;52.086;5.240;2022-09-09T09:20:33;7.1;;;2.8;;
50651;SDS011;61429;52.086;5.240;2022-09-09T09:22:20;9.9;;;3.4;;
50651;SDS011;61429;52.086;5.240;2022-09-09T09:23:59;9.0;;;3.5;;
50651;SDS011;61429;52.086;5.240;2022-09-09T09:25:38;7.2;;;2.9;;
50651;SDS011;61429;52.086;5.240;2022-09-09T09:29:10;6.1;;;2.5;;
50651;SDS011;61429;52.086;5.240;2022-09-09T09:30:49;7.4;;;2.8;;
50651;SDS011;61429;52.086;5.240;2022-09-09T09:32:31;8.0;;;3.1;;
50651;SDS011;61429;52.086;5.240;2022-09-09T09:34:11;7.3;;;3.1;;
50651;SDS011;61429;52.086;5.240;2022-09-09T09:37:27;11.5;;;3.3;;
50651;SDS011;61429;52.086;5.240;2022-09-09T09:39:06;7.7;;;3.0;;
50651;SDS011;61429;52.086;5.240;2022-09-09T09:40:50;6.9;;;2.7;;
50651;SDS011;61429;52.086;5.240;2022-09-09T09:42:29;9.31;;;2.9;;
50651;SDS011;61429;52.086;5.240;2022-09-09T09:46:00;8.0;;;2.9;;
50651;SDS011;61429;52.086;5.240;2022-09-09T09:47:41;10.6;;;4.1;;
50651;SDS011;61429;52.086;5.240;2022-09-09T09:49:17;9.81;;;3.2;;
50651;SDS011;61429;52.086;5.240;2022-09-09T09:50:55;8.71;;;3.5;;
50651;SDS011;61429;52.086;5.240;2022-09-09T09:54:15;7.1;;;3.0;;
50651;SDS011;61429;52.086;5.240;2022-09-09T09:55:59;6.5;;;2.7;;
50651;SDS011;61429;52.086;5.240;2022-09-09T09:57:39;8.9;;;3.1;;
50651;SDS011;61429;52.086;5.240;2022-09-09T09:59:23;6.7;;;2.9;;
50651;SDS011;61429;52.086;5.240;2022-09-09T10:02:58;6.3;;;3.0;;
50651;SDS011;61429;52.086;5.240;2022-09-09T10:04:35;8.81;;;3.2;;
50651;SDS011;61429;52.086;5.240;2022-09-09T10:06:12;7.1;;;3.1;;
50651;SDS011;61429;52.086;5.240;2022-09-09T10:07:59;10.1;;;3.2;;
50651;SDS011;61429;52.086;5.240;2022-09-09T10:09:37;11.5;;;3.2;;
50651;SDS011;61429;52.086;5.240;2022-09-09T10:13:08;9.71;;;3.4;;
50651;SDS011;61429;52.086;5.240;2022-09-09T10:14:53;7.7;;;2.9;;
50651;SDS011;61429;52.086;5.240;2022-09-09T10:16:42;8.81;;;3.3;;
50651;SDS011;61429;52.086;5.240;2022-09-09T10:18:36;6.5;;;2.8;;
50651;SDS011;61429;52.086;5.240;2022-09-09T10:20:28;8.71;;;3.2;;
50651;SDS011;61429;52.086;5.240;2022-09-09T10:22:16;8.0;;;3.3;;
50651;SDS011;61429;52.086;5.240;2022-09-09T10:26:17;7.7;;;3.0;;
50651;SDS011;61429;52.086;5.240;2022-09-09T10:28:15;6.8;;;3.0;;
50651;SDS011;61429;52.086;5.240;2022-09-09T10:30:58;6.8;;;2.9;;
50651;SDS011;61429;52.086;5.240;2022-09-09T10:32:54;8.5;;;3.2;;
50651;SDS011;61429;52.086;5.240;2022-09-09T10:34:45;7.7;;;3.2;;
50651;SDS011;61429;52.086;5.240;2022-09-09T10:38:15;6.3;;;3.3;;
50651;SDS011;61429;52.086;5.240;2022-09-09T10:40:00;7.5;;;3.3;;
50651;SDS011;61429;52.086;5.240;2022-09-09T10:41:53;7.8;;;3.3;;
50651;SDS011;61429;52.086;5.240;2022-09-09T10:43:44;9.0;;;3.0;;
50651;SDS011;61429;52.086;5.240;2022-09-09T10:45:36;7.8;;;3.6;;
50651;SDS011;61429;52.086;5.240;2022-09-09T10:47:28;5.3;;;2.8;;
50651;SDS011;61429;52.086;5.240;2022-09-09T10:49:27;5.9;;;2.8;;
50651;SDS011;61429;52.086;5.240;2022-09-09T10:53:08;9.5;;;3.1;;
50651;SDS011;61429;52.086;5.240;2022-09-09T10:54:53;8.6;;;3.1;;
50651;SDS011;61429;52.086;5.240;2022-09-09T10:56:36;6.7;;;2.9;;
50651;SDS011;61429;52.086;5.240;2022-09-09T10:58:14;8.6;;;3.2;;
50651;SDS011;61429;52.086;5.240;2022-09-09T11:00:01;7.6;;;2.8;;
50651;SDS011;61429;52.086;5.240;2022-09-09T11:03:24;7.8;;;2.9;;
50651;SDS011;61429;52.086;5.240;2022-09-09T11:05:04;5.6;;;2.7;;
50651;SDS011;61429;52.086;5.240;2022-09-09T11:06:53;5.8;;;2.9;;
50651;SDS011;61429;52.086;5.240;2022-09-09T11:08:32;5.8;;;2.7;;
50651;SDS011;61429;52.086;5.240;2022-09-09T11:10:17;6.3;;;2.7;;
50651;SDS011;61429;52.086;5.240;2022-09-09T11:13:39;6.7;;;2.9;;
50651;SDS011;61429;52.086;5.240;2022-09-09T11:15:23;5.8;;;3.1;;
50651;SDS011;61429;52.086;5.240;2022-09-09T11:17:18;6.5;;;2.8;;
50651;SDS011;61429;52.086;5.240;2022-09-09T11:19:00;7.3;;;2.8;;
50651;SDS011;61429;52.086;5.240;2022-09-09T11:20:41;5.8;;;2.9;;
50651;SDS011;61429;52.086;5.240;2022-09-09T11:24:13;7.7;;;2.8;;
50651;SDS011;61429;52.086;5.240;2022-09-09T11:25:57;6.3;;;2.8;;
50651;SDS011;61429;52.086;5.240;2022-09-09T11:27:50;7.6;;;2.8;;
50651;SDS011;61429;52.086;5.240;2022-09-09T11:29:49;5.6;;;2.4;;
50651;SDS011;61429;52.086;5.240;2022-09-09T11:31:44;6.3;;;2.7;;
50651;SDS011;61429;52.086;5.240;2022-09-09T11:33:34;5.0;;;2.5;;
50651;SDS011;61429;52.086;5.240;2022-09-09T11:35:34;9.31;;;3.0;;
50651;SDS011;61429;52.086;5.240;2022-09-09T11:39:34;10.3;;;3.5;;
50651;SDS011;61429;52.086;5.240;2022-09-09T11:41:40;5.3;;;2.5;;
50651;SDS011;61429;52.086;5.240;2022-09-09T11:45:08;6.7;;;3.1;;
50651;SDS011;61429;52.086;5.240;2022-09-09T11:46:46;5.11;;;2.5;;
50651;SDS011;61429;52.086;5.240;2022-09-09T11:48:29;5.11;;;2.7;;
50651;SDS011;61429;52.086;5.240;2022-09-09T11:50:10;5.9;;;2.6;;
50651;SDS011;61429;52.086;5.240;2022-09-09T11:52:10;6.8;;;2.8;;
50651;SDS011;61429;52.086;5.240;2022-09-09T11:55:36;8.4;;;3.3;;
50651;SDS011;61429;52.086;5.240;2022-09-09T11:57:16;7.4;;;3.0;;
50651;SDS011;61429;52.086;5.240;2022-09-09T11:59:02;6.1;;;2.9;;
50651;SDS011;61429;52.086;5.240;2022-09-09T12:00:42;6.1;;;3.3;;
50651;SDS011;61429;52.086;5.240;2022-09-09T12:04:04;6.1;;;3.4;;
50651;SDS011;61429;52.086;5.240;2022-09-09T12:05:51;5.11;;;2.6;;
50651;SDS011;61429;52.086;5.240;2022-09-09T12:07:30;6.9;;;3.3;;
50651;SDS011;61429;52.086;5.240;2022-09-09T12:09:15;6.5;;;3.0;;
50651;SDS011;61429;52.086;5.240;2022-09-09T12:10:59;9.0;;;3.5;;
50651;SDS011;61429;52.086;5.240;2022-09-09T12:14:21;6.5;;;3.3;;
50651;SDS011;61429;52.086;5.240;2022-09-09T12:18:04;6.8;;;3.7;;
50651;SDS011;61429;52.086;5.240;2022-09-09T12:19:59;7.4;;;3.2;;
50651;SDS011;61429;52.086;5.240;2022-09-09T12:21:40;7.2;;;3.5;;
50651;SDS011;61429;52.086;5.240;2022-09-09T12:25:16;5.7;;;3.1;;
50651;SDS011;61429;52.086;5.240;2022-09-09T12:27:01;5.4;;;2.8;;
50651;SDS011;61429;52.086;5.240;2022-09-09T12:28:48;5.9;;;3.0;;
50651;SDS011;61429;52.086;5.240;2022-09-09T12:30:32;5.3;;;3.1;;
50651;SDS011;61429;52.086;5.240;2022-09-09T12:32:19;6.5;;;2.8;;
50651;SDS011;61429;52.086;5.240;2022-09-09T12:34:04;6.7;;;3.6;;
50651;SDS011;61429;52.086;5.240;2022-09-09T12:37:32;5.7;;;3.1;;
50651;SDS011;61429;52.086;5.240;2022-09-09T12:39:15;6.8;;;3.5;;
50651;SDS011;61429;52.086;5.240;2022-09-09T12:40:56;6.3;;;3.1;;
50651;SDS011;61429;52.086;5.240;2022-09-09T12:42:39;5.9;;;3.1;;
50651;SDS011;61429;52.086;5.240;2022-09-09T12:45:58;5.2;;;2.9;;
50651;SDS011;61429;52.086;5.240;2022-09-09T12:47:39;6.1;;;3.2;;
50651;SDS011;61429;52.086;5.240;2022-09-09T12:49:24;6.7;;;3.3;;
50651;SDS011;61429;52.086;5.240;2022-09-09T12:51:06;7.7;;;3.6;;
50651;SDS011;61429;52.086;5.240;2022-09-09T12:52:59;5.3;;;3.0;;
50651;SDS011;61429;52.086;5.240;2022-09-09T12:56:21;7.5;;;3.8;;
50651;SDS011;61429;52.086;5.240;2022-09-09T12:58:00;6.1;;;3.6;;
50651;SDS011;61429;52.086;5.240;2022-09-09T12:59:40;5.2;;;2.8;;
50651;SDS011;61429;52.086;5.240;2022-09-09T13:01:20;5.9;;;3.5;;
50651;SDS011;61429;52.086;5.240;2022-09-09T13:04:37;5.5;;;3.0;;
50651;SDS011;61429;52.086;5.240;2022-09-09T13:06:18;7.0;;;3.0;;